Time;durP1;ratioP1;P1;durP2;ratioP2;P2;SDS_P1;SDS_P2;PMS_P1;PMS_P2;Temp;Humidity;BMP_temperature;BMP_pressure;BME280_temperature;BME280_humidity;BME280_pressure;Samples;Min_cycle;Max_cycle;Signal;HPM_P1;HPM_P2
2022/06/02 00:03:32;;;;;;;7.25;5.00;;;;;;;;;;4247819;82;28543;-80
2022/06/02 00:09:46;;;;;;;9.85;4.70;;;;;;;;;;4239808;82;28474;-81
2022/06/02 00:15:52;;;;;;;8.80;5.25;;;;;;;;;;4250327;82;28526;-82
2022/06/02 00:21:57;;;;;;;9.35;5.50;;;;;;;;;;4221696;83;28527;-81
2022/06/02 00:28:20;;;;;;;10.98;6.30;;;;;;;;;;4235740;82;28505;-80
2022/06/02 00:34:42;;;;;;;10.32;5.97;;;;;;;;;;4236987;83;28559;-80
2022/06/02 00:40:43;;;;;;;9.55;6.10;;;;;;;;;;4231800;83;28653;-80
2022/06/02 00:47:01;;;;;;;8.38;5.30;;;;;;;;;;4216902;82;28546;-80
2022/06/02 00:53:21;;;;;;;10.58;6.10;;;;;;;;;;4180294;83;28526;-81
2022/06/02 00:59:43;;;;;;;8.70;6.10;;;;;;;;;;4214253;84;28547;-80
2022/06/02 01:06:07;;;;;;;9.50;6.00;;;;;;;;;;4201245;83;28494;-81
2022/06/02 01:12:35;;;;;;;7.95;4.53;;;;;;;;;;4213416;83;28940;-82
2022/06/02 01:18:46;;;;;;;8.05;4.72;;;;;;;;;;4209164;83;28580;-79
2022/06/02 01:25:02;;;;;;;5.90;3.92;;;;;;;;;;4215913;83;28534;-80
2022/06/02 01:31:19;;;;;;;7.78;4.30;;;;;;;;;;4194157;83;28979;-79
2022/06/02 01:37:29;;;;;;;6.55;4.30;;;;;;;;;;4209194;84;28497;-82
2022/06/02 01:43:49;;;;;;;6.58;4.17;;;;;;;;;;4223503;83;28531;-83
2022/06/02 01:50:04;;;;;;;8.15;4.40;;;;;;;;;;4330923;81;28510;-82
2022/06/02 01:56:21;;;;;;;6.40;4.12;;;;;;;;;;4213216;83;28570;-81
2022/06/02 02:02:34;;;;;;;6.67;4.00;;;;;;;;;;4221394;82;28469;-80
2022/06/02 02:08:41;;;;;;;7.37;3.98;;;;;;;;;;4288289;82;28564;-81
2022/06/02 02:14:49;;;;;;;4.30;3.40;;;;;;;;;;4254261;82;28584;-80
2022/06/02 02:21:05;;;;;;;6.08;3.50;;;;;;;;;;4273167;82;28473;-79
2022/06/02 02:27:15;;;;;;;6.80;3.77;;;;;;;;;;4300797;82;28534;-80
2022/06/02 02:33:40;;;;;;;7.12;3.70;;;;;;;;;;4335618;80;28575;-80
2022/06/02 02:40:03;;;;;;;7.97;3.67;;;;;;;;;;4302362;81;28529;-80
2022/06/02 02:46:20;;;;;;;7.30;3.65;;;;;;;;;;4282563;81;28588;-79
2022/06/02 02:52:46;;;;;;;5.53;3.52;;;;;;;;;;4352196;80;28500;-80
2022/06/02 02:58:57;;;;;;;6.00;3.35;;;;;;;;;;4280038;81;28525;-80
2022/06/02 03:05:16;;;;;;;7.65;3.55;;;;;;;;;;4278281;82;28534;-79
2022/06/02 03:11:42;;;;;;;7.33;4.20;;;;;;;;;;4323438;81;28478;-79
2022/06/02 03:18:04;;;;;;;8.13;3.77;;;;;;;;;;4338966;81;28521;-79
2022/06/02 03:24:29;;;;;;;7.03;4.05;;;;;;;;;;4323965;81;28532;-80
2022/06/02 03:30:33;;;;;;;6.67;4.08;;;;;;;;;;4333739;81;28556;-80
2022/06/02 03:36:50;;;;;;;5.42;3.87;;;;;;;;;;4342014;81;28567;-80
2022/06/02 03:43:04;;;;;;;6.03;4.00;;;;;;;;;;4331424;81;28584;-81
2022/06/02 03:49:29;;;;;;;5.58;3.55;;;;;;;;;;4323939;81;28546;-81
2022/06/02 03:55:43;;;;;;;5.40;3.85;;;;;;;;;;4330833;81;28577;-81
2022/06/02 04:01:48;;;;;;;4.62;3.58;;;;;;;;;;4339811;81;28598;-80
2022/06/02 04:08:02;;;;;;;5.00;3.58;;;;;;;;;;4324428;81;28618;-81
2022/06/02 04:14:09;;;;;;;6.55;3.83;;;;;;;;;;4304950;81;28558;-80
2022/06/02 04:20:36;;;;;;;5.28;3.77;;;;;;;;;;4324725;81;28514;-81
2022/06/02 04:26:53;;;;;;;6.47;4.05;;;;;;;;;;4310349;81;28534;-81
2022/06/02 04:33:14;;;;;;;6.97;4.25;;;;;;;;;;4283743;81;28592;-84
2022/06/02 04:39:22;;;;;;;5.65;4.17;;;;;;;;;;4317056;81;28481;-81
2022/06/02 04:45:38;;;;;;;6.90;4.62;;;;;;;;;;4293427;81;28564;-82
2022/06/02 04:51:55;;;;;;;6.62;4.17;;;;;;;;;;4291645;81;28481;-79
2022/06/02 04:58:33;;;;;;;7.25;4.47;;;;;;;;;;4299477;81;28509;-79
2022/06/02 05:04:41;;;;;;;5.37;4.67;;;;;;;;;;4297066;81;28554;-81
2022/06/02 05:10:49;;;;;;;8.25;5.03;;;;;;;;;;4247549;81;28508;-82
2022/06/02 05:16:57;;;;;;;9.08;5.65;;;;;;;;;;4321444;81;28568;-84
2022/06/02 05:23:20;;;;;;;6.22;4.80;;;;;;;;;;4297295;81;28508;-81
2022/06/02 05:29:42;;;;;;;8.25;5.47;;;;;;;;;;4325415;81;28589;-84
2022/06/02 05:36:05;;;;;;;5.95;4.33;;;;;;;;;;4331370;81;28534;-82
2022/06/02 05:42:31;;;;;;;7.72;4.50;;;;;;;;;;4334428;81;28587;-77
2022/06/02 05:48:37;;;;;;;;;;;;;;;;;;4316227;82;28563;-76
2022/06/02 05:55:02;;;;;;;6.97;3.70;;;;;;;;;;4335041;81;20268;-77
2022/06/02 06:01:07;;;;;;;4.65;3.70;;;;;;;;;;4324526;82;28506;-76
2022/06/02 06:07:23;;;;;;;5.17;3.10;;;;;;;;;;4348024;81;28534;-76
2022/06/02 06:14:03;;;;;;;4.12;3.10;;;;;;;;;;4316671;82;28499;-77
2022/06/02 06:20:41;;;;;;;4.33;2.90;;;;;;;;;;4309561;81;28542;-76
2022/06/02 06:27:04;;;;;;;2.92;2.60;;;;;;;;;;4332561;81;28485;-76
2022/06/02 06:33:28;;;;;;;4.90;2.90;;;;;;;;;;4338810;81;28545;-77
2022/06/02 06:39:42;;;;;;;5.53;2.90;;;;;;;;;;4326284;81;28534;-77
2022/06/02 06:46:08;;;;;;;2.40;2.20;;;;;;;;;;4335905;81;28550;-77
2022/06/02 06:52:33;;;;;;;4.27;2.27;;;;;;;;;;4337009;81;28492;-77
2022/06/02 06:58:53;;;;;;;1.90;1.60;;;;;;;;;;4324947;81;28497;-76
2022/06/02 07:05:14;;;;;;;4.03;2.02;;;;;;;;;;4324880;81;28521;-77
2022/06/02 07:18:15;;;;;;;3.52;2.30;;;;;;;;;;4341015;81;28520;-77
2022/06/02 07:24:50;;;;;;;3.15;2.30;;;;;;;;;;4316738;81;28545;-77
2022/06/02 07:31:03;;;;;;;5.70;3.22;;;;;;;;;;4320381;81;28468;-77
2022/06/02 07:37:11;;;;;;;6.60;3.72;;;;;;;;;;4302214;83;28509;-77
2022/06/02 07:43:50;;;;;;;5.40;3.92;;;;;;;;;;4303621;83;28557;-77
2022/06/02 07:49:54;;;;;;;6.92;4.15;;;;;;;;;;4304249;81;28484;-77
2022/06/02 07:56:15;;;;;;;4.80;3.30;;;;;;;;;;4303809;81;29084;-78
2022/06/02 08:02:22;;;;;;;3.08;2.77;;;;;;;;;;4289165;83;28486;-77
2022/06/02 08:08:45;;;;;;;2.98;2.67;;;;;;;;;;4302517;81;28516;-77
2022/06/02 08:15:02;;;;;;;4.97;2.80;;;;;;;;;;4303884;83;28537;-77
2022/06/02 08:21:25;;;;;;;5.37;2.62;;;;;;;;;;4285407;81;28542;-77
2022/06/02 08:27:36;;;;;;;3.22;2.67;;;;;;;;;;4330814;81;28468;-77
2022/06/02 08:33:49;;;;;;;4.62;2.90;;;;;;;;;;4357319;81;28532;-77
2022/06/02 08:40:12;;;;;;;5.40;3.30;;;;;;;;;;4360483;81;28565;-77
2022/06/02 08:46:44;;;;;;;6.22;3.45;;;;;;;;;;4342904;81;28516;-77
2022/06/02 08:53:12;;;;;;;3.65;3.00;;;;;;;;;;4349643;81;28559;-77
2022/06/02 08:59:29;;;;;;;5.92;2.90;;;;;;;;;;4356417;81;28544;-77
2022/06/02 09:05:59;;;;;;;3.20;2.90;;;;;;;;;;4309925;81;28520;-77
2022/06/02 09:12:19;;;;;;;3.72;3.12;;;;;;;;;;4344746;81;28518;-76
2022/06/02 09:18:51;;;;;;;4.85;3.20;;;;;;;;;;4232077;81;28556;-76
2022/06/02 09:25:08;;;;;;;3.33;2.47;;;;;;;;;;4348436;81;28480;-76
2022/06/02 09:31:28;;;;;;;3.30;2.70;;;;;;;;;;4283794;81;28494;-77
2022/06/02 09:37:56;;;;;;;3.45;3.05;;;;;;;;;;4320178;81;28505;-76
2022/06/02 09:44:27;;;;;;;5.65;3.15;;;;;;;;;;4304412;81;28509;-76
2022/06/02 09:51:04;;;;;;;4.10;3.70;;;;;;;;;;4281376;83;28522;-77
2022/06/02 10:04:13;;;;;;;5.25;4.17;;;;;;;;;;4299456;81;28550;-72
2022/06/02 10:10:27;;;;;;;7.17;4.12;;;;;;;;;;4300405;81;28545;-72
2022/06/02 10:16:43;;;;;;;5.37;4.37;;;;;;;;;;4299305;81;28566;-71
2022/06/02 10:23:02;;;;;;;5.70;4.77;;;;;;;;;;4299877;81;28481;-70
2022/06/02 10:29:33;;;;;;;5.62;4.50;;;;;;;;;;4333357;81;28555;-72
2022/06/02 10:36:08;;;;;;;4.50;4.10;;;;;;;;;;4328764;81;28573;-71
2022/06/02 10:42:27;;;;;;;5.28;4.35;;;;;;;;;;4144916;84;28496;-71
2022/06/02 10:48:53;;;;;;;6.12;4.62;;;;;;;;;;4326163;81;28515;-71
2022/06/02 10:55:07;;;;;;;5.30;4.42;;;;;;;;;;4340072;81;28591;-72
2022/06/02 11:01:21;;;;;;;8.48;4.12;;;;;;;;;;4323891;81;28551;-71
2022/06/02 11:07:41;;;;;;;5.90;4.58;;;;;;;;;;4322570;81;28542;-71
2022/06/02 11:14:07;;;;;;;7.20;4.33;;;;;;;;;;4333834;81;28492;-71
2022/06/02 11:20:24;;;;;;;4.95;4.35;;;;;;;;;;4331889;81;28607;-71
2022/06/02 11:27:01;;;;;;;6.65;4.28;;;;;;;;;;4341116;81;28504;-72
2022/06/02 11:33:14;;;;;;;6.87;3.77;;;;;;;;;;4339388;81;28527;-71
2022/06/02 11:39:21;;;;;;;5.12;3.67;;;;;;;;;;4331265;81;28575;-70
2022/06/02 11:45:59;;;;;;;4.05;3.47;;;;;;;;;;4332145;81;28566;-71
2022/06/02 11:52:23;;;;;;;6.12;3.95;;;;;;;;;;4338671;81;28547;-71
2022/06/02 11:58:45;;;;;;;4.55;3.40;;;;;;;;;;4332625;81;28525;-70
2022/06/02 12:05:07;;;;;;;4.42;4.03;;;;;;;;;;4330990;81;28511;-70
2022/06/02 12:11:27;;;;;;;4.33;2.70;;;;;;;;;;4326561;81;28500;-71
2022/06/02 12:17:54;;;;;;;3.85;3.10;;;;;;;;;;4335887;81;28569;-72
2022/06/02 12:24:33;;;;;;;3.30;3.00;;;;;;;;;;4364252;80;28528;-71
2022/06/02 12:30:53;;;;;;;4.72;2.75;;;;;;;;;;4306744;81;28528;-72
2022/06/02 12:37:12;;;;;;;3.20;2.37;;;;;;;;;;4321503;81;28603;-71
2022/06/02 12:43:20;;;;;;;5.03;2.60;;;;;;;;;;4312176;81;28534;-71
2022/06/02 12:49:52;;;;;;;3.30;2.60;;;;;;;;;;4306999;81;28534;-71
2022/06/02 12:56:15;;;;;;;3.98;2.60;;;;;;;;;;4313844;81;28530;-72
2022/06/02 13:02:53;;;;;;;3.33;2.30;;;;;;;;;;4306739;81;28545;-71
2022/06/02 13:09:06;;;;;;;2.50;2.30;;;;;;;;;;4256626;81;28506;-71
2022/06/02 13:15:32;;;;;;;3.52;2.10;;;;;;;;;;4328276;81;28524;-71
2022/06/02 13:21:50;;;;;;;2.45;1.87;;;;;;;;;;4317409;81;28543;-72
2022/06/02 13:27:54;;;;;;;3.72;3.27;;;;;;;;;;4292196;81;28525;-71
2022/06/02 13:34:19;;;;;;;5.15;2.27;;;;;;;;;;4299554;81;28481;-71
2022/06/02 13:40:33;;;;;;;2.22;2.00;;;;;;;;;;4293868;81;28498;-70
2022/06/02 13:47:00;;;;;;;2.10;1.70;;;;;;;;;;4279635;81;28530;-71
2022/06/02 13:53:10;;;;;;;3.50;2.12;;;;;;;;;;4296157;82;28535;-71
2022/06/02 13:59:46;;;;;;;3.27;2.02;;;;;;;;;;4314145;80;28510;-72
2022/06/02 14:06:06;;;;;;;2.40;1.90;;;;;;;;;;4264495;81;28525;-71
2022/06/02 14:12:33;;;;;;;3.52;2.27;;;;;;;;;;4298657;82;28512;-71
2022/06/02 14:19:01;;;;;;;3.08;2.15;;;;;;;;;;4348008;80;28476;-74
2022/06/02 14:25:12;;;;;;;1.87;1.77;;;;;;;;;;4298284;80;28541;-75
2022/06/02 14:31:17;;;;;;;4.33;1.82;;;;;;;;;;4282796;82;28576;-75
2022/06/02 14:37:22;;;;;;;2.52;1.77;;;;;;;;;;4277594;82;28617;-74
2022/06/02 14:43:38;;;;;;;2.92;1.82;;;;;;;;;;4292525;81;28541;-72
2022/06/02 14:50:02;;;;;;;4.22;2.27;;;;;;;;;;4282819;82;28552;-75
2022/06/02 14:56:33;;;;;;;3.52;2.20;;;;;;;;;;4282809;82;28483;-73
2022/06/02 15:02:56;;;;;;;3.37;1.90;;;;;;;;;;4247587;83;28509;-75
2022/06/02 15:09:04;;;;;;;5.10;2.10;;;;;;;;;;4218327;83;28512;-78
2022/06/02 15:15:12;;;;;;;2.47;1.90;;;;;;;;;;4199249;83;28543;-78
2022/06/02 15:21:25;;;;;;;5.47;1.95;;;;;;;;;;4272129;82;28649;-77
2022/06/02 15:27:53;;;;;;;2.60;1.82;;;;;;;;;;4276720;82;28570;-80
2022/06/02 15:34:14;;;;;;;2.10;1.60;;;;;;;;;;4358364;80;28523;-80
2022/06/02 15:40:37;;;;;;;2.27;1.47;;;;;;;;;;4365407;80;28572;-79
2022/06/02 15:47:02;;;;;;;3.67;1.50;;;;;;;;;;4358721;80;28536;-79
2022/06/02 15:53:29;;;;;;;2.05;1.32;;;;;;;;;;4375147;80;28491;-82
2022/06/02 15:59:40;;;;;;;3.17;1.47;;;;;;;;;;4362243;80;28519;-81
2022/06/02 16:06:06;;;;;;;2.98;1.20;;;;;;;;;;4392658;80;28566;-79
2022/06/02 16:12:24;;;;;;;2.83;1.30;;;;;;;;;;4373621;80;28545;-80
2022/06/02 16:18:44;;;;;;;3.27;1.50;;;;;;;;;;4371746;80;28476;-80
2022/06/02 16:25:07;;;;;;;3.02;1.30;;;;;;;;;;4375455;80;28515;-82
2022/06/02 16:31:23;;;;;;;2.58;1.50;;;;;;;;;;4336840;80;28573;-80
2022/06/02 16:37:29;;;;;;;;;;;;;;;;;;4254462;81;28477;-75
2022/06/02 16:43:53;;;;;;;3.87;1.60;;;;;;;;;;4367166;80;20306;-78
2022/06/02 16:50:09;;;;;;;3.60;1.52;;;;;;;;;;4282185;81;28526;-78
2022/06/02 16:56:11;;;;;;;2.60;1.17;;;;;;;;;;4298594;81;28538;-81
2022/06/02 17:02:33;;;;;;;1.75;1.20;;;;;;;;;;4307128;81;28611;-80
2022/06/02 17:08:44;;;;;;;1.92;1.20;;;;;;;;;;4315927;81;28463;-82
2022/06/02 17:14:52;;;;;;;3.60;1.30;;;;;;;;;;4305989;81;28527;-81
2022/06/02 17:21:03;;;;;;;2.40;1.20;;;;;;;;;;4319884;81;28598;-79
2022/06/02 17:27:19;;;;;;;4.25;1.20;;;;;;;;;;4301487;81;28562;-79
2022/06/02 17:33:45;;;;;;;1.87;1.30;;;;;;;;;;4313899;81;28532;-76
2022/06/02 17:40:03;;;;;;;2.35;1.17;;;;;;;;;;4302892;81;28538;-76
2022/06/02 17:46:32;;;;;;;1.47;1.10;;;;;;;;;;4312856;81;28558;-75
2022/06/02 17:52:54;;;;;;;2.50;1.20;;;;;;;;;;4305339;81;28546;-78
2022/06/02 17:59:16;;;;;;;2.35;1.37;;;;;;;;;;4300250;81;28825;-75
2022/06/02 18:05:24;;;;;;;1.62;1.20;;;;;;;;;;4285795;81;28565;-77
2022/06/02 18:11:31;;;;;;;2.55;1.50;;;;;;;;;;4307922;81;28529;-75
2022/06/02 18:18:02;;;;;;;3.00;1.45;;;;;;;;;;4304302;81;28560;-75
2022/06/02 18:24:16;;;;;;;2.75;1.70;;;;;;;;;;4321964;81;28531;-77
2022/06/02 18:30:41;;;;;;;4.78;1.90;;;;;;;;;;4271722;81;28647;-76
2022/06/02 18:37:15;;;;;;;3.30;1.90;;;;;;;;;;4261461;82;28568;-75
2022/06/02 18:43:25;;;;;;;4.95;2.05;;;;;;;;;;4261454;82;28520;-73
2022/06/02 18:49:39;;;;;;;3.45;1.62;;;;;;;;;;4259605;82;28586;-76
2022/06/02 18:56:13;;;;;;;3.10;1.40;;;;;;;;;;4259337;82;28525;-74
2022/06/02 19:02:33;;;;;;;1.82;1.30;;;;;;;;;;4261403;82;28539;-76
2022/06/02 19:15:28;;;;;;;2.83;1.53;;;;;;;;;;4256923;82;28485;-75
2022/06/02 19:21:39;;;;;;;2.30;1.30;;;;;;;;;;4254791;82;28526;-74
2022/06/02 19:27:50;;;;;;;3.15;1.60;;;;;;;;;;4279063;82;28552;-74
2022/06/02 19:34:06;;;;;;;4.53;1.72;;;;;;;;;;4284920;81;28475;-74
2022/06/02 19:40:23;;;;;;;2.30;1.25;;;;;;;;;;4313795;81;28585;-72
2022/06/02 19:46:31;;;;;;;1.82;1.40;;;;;;;;;;4303797;82;28523;-74
2022/06/02 19:52:38;;;;;;;2.75;1.25;;;;;;;;;;4308820;81;28538;-74
2022/06/02 19:58:49;;;;;;;3.15;1.35;;;;;;;;;;4311929;82;28578;-76
2022/06/02 20:04:54;;;;;;;2.87;1.70;;;;;;;;;;4301420;82;28491;-74
2022/06/02 20:10:59;;;;;;;3.35;1.50;;;;;;;;;;4316034;82;28457;-74
2022/06/02 20:17:04;;;;;;;3.33;1.70;;;;;;;;;;4306679;81;28545;-74
2022/06/02 20:23:29;;;;;;;2.55;1.47;;;;;;;;;;4315156;81;28564;-74
2022/06/02 20:29:39;;;;;;;1.70;1.57;;;;;;;;;;4307023;81;28538;-74
2022/06/02 20:36:06;;;;;;;5.03;2.00;;;;;;;;;;4280341;82;28528;-74
2022/06/02 20:42:11;;;;;;;4.85;2.22;;;;;;;;;;4277810;82;28571;-73
2022/06/02 20:48:33;;;;;;;4.30;1.67;;;;;;;;;;4277075;82;28481;-74
2022/06/02 20:54:54;;;;;;;3.72;1.50;;;;;;;;;;4283908;82;28538;-75
2022/06/02 21:00:58;;;;;;;4.12;2.02;;;;;;;;;;4277126;82;28488;-74
2022/06/02 21:07:09;;;;;;;4.50;1.77;;;;;;;;;;4273676;82;28585;-74
2022/06/02 21:13:23;;;;;;;4.60;1.90;;;;;;;;;;4261647;82;28486;-74
2022/06/02 21:19:28;;;;;;;3.83;1.90;;;;;;;;;;4184900;84;28524;-74
2022/06/02 21:25:39;;;;;;;3.52;1.92;;;;;;;;;;4191309;84;28518;-74
2022/06/02 21:31:42;;;;;;;3.35;1.90;;;;;;;;;;4260922;82;28564;-74
2022/06/02 21:37:50;;;;;;;3.70;1.70;;;;;;;;;;4248283;82;28602;-74
2022/06/02 21:43:58;;;;;;;4.12;2.40;;;;;;;;;;4264837;82;28520;-74
2022/06/02 21:50:10;;;;;;;5.35;2.30;;;;;;;;;;4261503;82;28495;-74
2022/06/02 21:56:32;;;;;;;3.92;1.98;;;;;;;;;;4324159;81;28472;-74
2022/06/02 22:02:47;;;;;;;4.90;1.98;;;;;;;;;;4375180;80;28568;-74
2022/06/02 22:09:19;;;;;;;4.95;2.10;;;;;;;;;;4365656;80;28502;-74
2022/06/02 22:15:39;;;;;;;3.87;2.15;;;;;;;;;;4365393;80;28518;-74
2022/06/02 22:21:50;;;;;;;6.67;2.25;;;;;;;;;;4366395;80;28528;-74
2022/06/02 22:28:04;;;;;;;4.05;2.05;;;;;;;;;;4359134;80;28536;-74
2022/06/02 22:34:29;;;;;;;3.60;2.10;;;;;;;;;;4366069;80;28513;-74
2022/06/02 22:40:37;;;;;;;4.40;2.20;;;;;;;;;;4364225;80;28600;-74
2022/06/02 22:46:50;;;;;;;4.25;2.25;;;;;;;;;;4359184;80;28491;-73
2022/06/02 22:53:10;;;;;;;5.92;2.47;;;;;;;;;;4365428;80;28482;-75
2022/06/02 22:59:18;;;;;;;4.45;2.33;;;;;;;;;;4366465;80;28541;-75
2022/06/02 23:05:32;;;;;;;6.70;2.65;;;;;;;;;;4365914;80;28519;-74
2022/06/02 23:11:58;;;;;;;4.75;2.90;;;;;;;;;;4279734;82;28499;-75
2022/06/02 23:18:09;;;;;;;4.47;2.30;;;;;;;;;;4292637;82;28503;-75
2022/06/02 23:24:33;;;;;;;6.22;2.92;;;;;;;;;;4296585;82;28558;-75
2022/06/02 23:30:55;;;;;;;6.62;2.52;;;;;;;;;;4364789;80;28570;-75
2022/06/02 23:37:05;;;;;;;4.42;2.20;;;;;;;;;;4347027;80;28484;-75
2022/06/02 23:49:59;;;;;;;6.83;3.17;;;;;;;;;;4290345;81;28476;-75
2022/06/02 23:56:23;;;;;;;4.78;2.20;;;;;;;;;;4293837;82;28514;-75
